Terminal Aerodrome Forecast
Issued by NWS

Home | Current Version | Previous Version | Text Only | Print | Product List | Glossary Off
Versions: 1 2 3 4 5 6 7 8 9 10 11 12 13 14 15

000
FTUS43 KOAX 160349 AAA
TAFCDR
TAF AMD
KCDR 160349Z 1604/1624 01014KT 6SM -SN BKN025 OVC035
     FM160500 VRB05KT P6SM SCT090
     FM161600 24012KT P6SM SKC=

USA.gov is the U.S. government's official web portal to all federal, state and local government web resources and services.